createdAt,value
2022-08-10T00:01:57.327Z,100.00
2022-08-10T00:04:24.733Z,100.00
2022-08-10T00:06:54.064Z,100.00
2022-08-10T00:09:21.657Z,100.00
2022-08-10T00:11:48.573Z,100.00
2022-08-10T00:14:17.317Z,100.00
2022-08-10T00:16:44.119Z,100.00
2022-08-10T00:19:10.911Z,100.00
2022-08-10T00:21:37.926Z,100.00
2022-08-10T00:24:04.973Z,100.00
2022-08-10T00:27:55.568Z,100.00
2022-08-10T00:29:19.132Z,100.00
2022-08-10T00:31:58.375Z,100.00
2022-08-10T00:34:27.542Z,100.00
2022-08-10T00:36:54.503Z,100.00
2022-08-10T00:39:21.415Z,100.00
2022-08-10T00:42:07.255Z,100.00
2022-08-10T00:44:40.713Z,100.00
2022-08-10T00:47:35.318Z,100.00
2022-08-10T00:49:55.301Z,100.00
2022-08-10T00:52:24.618Z,100.00
2022-08-10T00:54:53.026Z,100.00
2022-08-10T00:57:20.105Z,100.00
2022-08-10T00:59:58.916Z,100.00
2022-08-10T01:02:32.077Z,100.00
2022-08-10T01:05:02.775Z,100.00
2022-08-10T01:07:35.769Z,100.00
2022-08-10T01:10:38.778Z,100.00
2022-08-10T01:13:13.158Z,100.00
2022-08-10T01:15:54.445Z,100.00
2022-08-10T01:19:01.110Z,100.00
2022-08-10T01:21:30.910Z,100.00
2022-08-10T01:24:15.863Z,100.00
2022-08-10T01:27:08.475Z,100.00
2022-08-10T01:29:50.157Z,100.00
2022-08-10T01:32:24.432Z,100.00
2022-08-10T01:34:57.747Z,100.00
2022-08-10T01:37:30.774Z,100.00
2022-08-10T01:39:59.916Z,100.00
2022-08-10T01:42:33.524Z,100.00
2022-08-10T01:45:04.383Z,100.00
2022-08-10T01:47:57.889Z,100.00
2022-08-10T01:50:59.080Z,100.00
2022-08-10T01:53:40.809Z,100.00
2022-08-10T01:56:11.107Z,100.00
2022-08-10T01:58:43.146Z,100.00
2022-08-10T02:01:16.618Z,100.00
2022-08-10T02:04:04.213Z,100.00
2022-08-10T02:06:37.227Z,100.00
2022-08-10T02:09:07.207Z,100.00
2022-08-10T02:12:07.887Z,100.00
2022-08-10T02:14:33.054Z,100.00
2022-08-10T02:17:07.175Z,100.00
2022-08-10T02:19:36.638Z,100.00
2022-08-10T02:22:45.757Z,100.00
2022-08-10T02:24:52.867Z,100.00
2022-08-10T02:27:22.773Z,100.00
2022-08-10T02:29:53.293Z,100.00
2022-08-10T02:32:38.560Z,100.00
2022-08-10T02:35:07.583Z,100.00
2022-08-10T02:37:37.528Z,100.00
2022-08-10T02:40:04.947Z,100.00
2022-08-10T02:45:18.651Z,100.00
2022-08-10T02:45:44.281Z,100.00
2022-08-10T02:48:20.179Z,100.00
2022-08-10T02:50:55.412Z,100.00
2022-08-10T02:54:05.346Z,100.00
2022-08-10T02:56:56.106Z,100.00
2022-08-10T02:59:39.855Z,100.00
2022-08-10T03:02:10.778Z,100.00
2022-08-10T03:04:55.511Z,100.00
2022-08-10T03:07:44.718Z,100.00
2022-08-10T03:10:24.555Z,100.00
2022-08-10T03:12:56.382Z,100.00
2022-08-10T03:15:25.030Z,100.00
2022-08-10T03:17:57.959Z,100.00
2022-08-10T03:20:38.372Z,100.00
2022-08-10T03:23:11.011Z,100.00
2022-08-10T03:25:39.271Z,100.00
2022-08-10T03:28:06.831Z,100.00
2022-08-10T03:30:34.641Z,100.00
2022-08-10T03:33:04.197Z,100.00
2022-08-10T03:35:31.630Z,100.00
2022-08-10T03:38:00.004Z,100.00
2022-08-10T03:40:35.805Z,100.00
2022-08-10T03:43:15.905Z,100.00
2022-08-10T03:45:55.958Z,100.00
2022-08-10T03:48:32.292Z,100.00
2022-08-10T03:51:16.429Z,100.00
2022-08-10T03:54:04.840Z,100.00
2022-08-10T03:56:33.326Z,100.00
2022-08-10T03:59:01.492Z,100.00
2022-08-10T04:02:44.210Z,100.00
2022-08-10T04:04:22.863Z,100.00
2022-08-10T04:06:55.270Z,100.00
2022-08-10T04:09:43.048Z,100.00
2022-08-10T04:12:17.837Z,100.00
2022-08-10T04:14:51.365Z,100.00
2022-08-10T04:18:02.602Z,100.00
2022-08-10T04:20:22.444Z,100.00
2022-08-10T04:22:52.416Z,100.00
2022-08-10T04:25:23.791Z,100.00
2022-08-10T04:27:53.889Z,100.00
2022-08-10T04:30:20.720Z,100.00
2022-08-10T04:32:52.433Z,100.00
2022-08-10T04:35:23.370Z,100.00
2022-08-10T04:37:51.969Z,100.00
2022-08-10T04:40:29.592Z,100.00
2022-08-10T04:43:12.486Z,100.00
2022-08-10T04:45:48.866Z,100.00
2022-08-10T04:48:41.674Z,100.00
2022-08-10T04:51:06.081Z,100.00
2022-08-10T04:53:34.261Z,100.00
2022-08-10T04:56:20.964Z,100.00
2022-08-10T04:59:00.575Z,100.00
2022-08-10T05:02:09.953Z,94.41
2022-08-10T05:04:34.107Z,77.44
2022-08-10T05:07:01.816Z,70.14
2022-08-10T05:09:31.861Z,66.92
2022-08-10T05:11:58.614Z,61.68
2022-08-10T05:14:25.526Z,57.38
2022-08-10T05:16:53.724Z,52.93
2022-08-10T05:20:02.125Z,51.98
2022-08-10T05:22:07.348Z,48.37
2022-08-10T05:24:38.102Z,45.31
2022-08-10T05:27:11.521Z,46.26
2022-08-10T05:29:40.483Z,45.38
2022-08-10T05:32:07.427Z,41.27
2022-08-10T05:34:34.161Z,41.25
2022-08-10T05:37:01.401Z,37.97
2022-08-10T05:39:30.959Z,37.91
2022-08-10T05:42:01.905Z,36.16
2022-08-10T05:44:30.177Z,36.56
2022-08-10T05:46:57.324Z,36.22
2022-08-10T05:49:24.476Z,35.23
2022-08-10T05:51:55.111Z,35.82
2022-08-10T05:54:24.418Z,35.15
2022-08-10T05:56:53.218Z,34.63
2022-08-10T06:00:29.531Z,37.49
2022-08-10T06:02:33.115Z,32.94
2022-08-10T06:05:08.992Z,31.67
2022-08-10T06:07:39.195Z,32.54
2022-08-10T06:10:10.188Z,33.59
2022-08-10T06:12:53.427Z,33.44
2022-08-10T06:15:52.221Z,35.33
2022-08-10T06:18:10.317Z,32.36
2022-08-10T06:20:39.909Z,31.65
2022-08-10T06:23:10.091Z,29.53
2022-08-10T06:26:09.630Z,31.53
2022-08-10T06:28:28.656Z,36.32
2022-08-10T06:30:58.763Z,36.54
2022-08-10T06:33:26.818Z,37.57
2022-08-10T06:35:56.268Z,33.97
2022-08-10T06:38:26.706Z,30.50
2022-08-10T06:40:57.084Z,29.99
2022-08-10T06:43:28.228Z,29.93
2022-08-10T06:46:06.924Z,28.99
2022-08-10T06:48:41.629Z,28.70
2022-08-10T06:51:14.540Z,29.91
2022-08-10T06:53:52.940Z,32.69
2022-08-10T06:56:37.989Z,32.17
2022-08-10T06:59:21.783Z,30.96
2022-08-10T07:02:01.502Z,32.79
2022-08-10T07:04:34.415Z,29.64
2022-08-10T07:07:04.921Z,26.44
2022-08-10T07:09:35.737Z,24.96
2022-08-10T07:12:08.199Z,24.43
2022-08-10T07:14:43.130Z,24.29
2022-08-10T07:17:16.791Z,24.45
2022-08-10T07:19:49.991Z,24.74
2022-08-10T07:23:05.938Z,23.82
2022-08-10T07:25:08.911Z,22.76
2022-08-10T07:27:59.160Z,24.02
2022-08-10T07:30:23.902Z,24.25
2022-08-10T07:32:55.762Z,23.12
2022-08-10T07:35:26.756Z,23.25
2022-08-10T07:37:58.342Z,25.58
2022-08-10T07:40:27.978Z,26.65
2022-08-10T07:42:58.732Z,26.18
2022-08-10T07:45:29.082Z,25.10
2022-08-10T07:48:29.758Z,25.34
2022-08-10T07:51:00.311Z,26.63
2022-08-10T07:53:32.594Z,26.36
2022-08-10T07:56:16.960Z,26.13
2022-08-10T07:58:57.822Z,25.48
2022-08-10T08:01:29.382Z,24.72
2022-08-10T08:04:10.989Z,25.93
2022-08-10T08:06:43.473Z,25.50
2022-08-10T08:09:11.367Z,26.78
2022-08-10T08:11:44.664Z,24.16
2022-08-10T08:14:13.103Z,26.10
2022-08-10T08:16:44.085Z,25.87
2022-08-10T08:19:28.228Z,27.50
2022-08-10T08:24:05.336Z,25.68
2022-08-10T08:24:47.600Z,25.68
2022-08-10T08:27:19.578Z,25.44
2022-08-10T08:29:48.338Z,27.42
2022-08-10T08:32:22.619Z,27.56
2022-08-10T08:35:02.162Z,29.99
2022-08-10T08:38:29.732Z,31.23
2022-08-10T08:40:33.852Z,28.79
2022-08-10T08:43:28.461Z,29.57
2022-08-10T08:46:16.757Z,32.30
2022-08-10T08:49:11.186Z,31.63
2022-08-10T08:52:12.386Z,30.88
2022-08-10T08:55:55.119Z,32.63
2022-08-10T08:58:30.300Z,31.05
2022-08-10T09:01:06.452Z,31.20
2022-08-10T09:03:54.710Z,32.16
2022-08-10T09:06:45.724Z,29.75
2022-08-10T09:09:27.643Z,30.58
2022-08-10T09:12:01.441Z,32.09
2022-08-10T09:14:41.605Z,29.13
2022-08-10T09:17:32.670Z,32.88
2022-08-10T09:20:23.811Z,31.22
2022-08-10T09:23:00.511Z,32.61
2022-08-10T09:25:35.751Z,31.89
2022-08-10T09:28:09.599Z,32.90
2022-08-10T09:31:22.464Z,33.75
2022-08-10T09:36:22.959Z,32.12
2022-08-10T09:37:02.727Z,31.28
2022-08-10T09:40:56.609Z,31.05
2022-08-10T09:43:25.022Z,29.99
2022-08-10T09:46:22.981Z,28.26
2022-08-10T09:48:54.999Z,30.09
2022-08-10T09:51:51.764Z,29.64
2022-08-10T09:54:48.962Z,29.31
2022-08-10T09:57:44.815Z,30.73
2022-08-10T10:00:19.352Z,31.05
2022-08-10T10:03:01.258Z,30.92
2022-08-10T10:09:10.160Z,29.27
2022-08-10T10:12:07.710Z,29.14
2022-08-10T10:15:24.377Z,30.20
2022-08-10T10:18:07.708Z,29.41
2022-08-10T10:20:57.174Z,30.64
2022-08-10T10:23:36.188Z,29.22
2022-08-10T10:26:21.368Z,32.05
2022-08-10T10:29:30.863Z,31.12
2022-08-10T10:32:22.119Z,28.34
2022-08-10T10:35:09.456Z,30.78
2022-08-10T10:38:03.036Z,30.57
2022-08-10T10:40:27.509Z,30.40
2022-08-10T10:43:20.362Z,31.19
2022-08-10T10:46:02.512Z,33.06
2022-08-10T10:48:42.161Z,28.83
2022-08-10T10:51:27.757Z,31.17
2022-08-10T10:54:07.068Z,33.95
2022-08-10T10:56:37.159Z,29.65
2022-08-10T10:59:55.480Z,30.68
2022-08-10T11:02:39.141Z,29.47
2022-08-10T11:05:45.000Z,31.54
2022-08-10T11:08:37.896Z,31.72
2022-08-10T11:11:59.906Z,29.44
2022-08-10T11:14:26.345Z,29.40
2022-08-10T11:17:02.867Z,31.77
2022-08-10T11:20:11.948Z,28.65
2022-08-10T11:22:44.582Z,29.37
2022-08-10T11:25:29.701Z,29.75
2022-08-10T11:27:59.358Z,28.93
2022-08-10T11:30:32.355Z,30.42
2022-08-10T11:33:11.774Z,30.45
2022-08-10T11:35:42.924Z,27.23
2022-08-10T11:38:57.952Z,27.19
2022-08-10T11:42:07.740Z,30.35
2022-08-10T11:45:01.230Z,28.46
2022-08-10T11:47:50.802Z,30.23
2022-08-10T11:50:31.717Z,30.76
2022-08-10T11:53:18.732Z,28.53
2022-08-10T11:55:52.883Z,31.19
2022-08-10T11:58:47.719Z,32.72
2022-08-10T12:01:24.922Z,31.36
2022-08-10T12:03:53.885Z,32.99
2022-08-10T12:06:53.718Z,33.48
2022-08-10T12:10:11.058Z,34.43
2022-08-10T12:12:01.217Z,35.99
2022-08-10T12:14:51.990Z,36.71
2022-08-10T12:17:31.276Z,36.15
2022-08-10T12:20:09.834Z,36.07
2022-08-10T12:22:51.361Z,35.03
2022-08-10T12:25:56.883Z,34.70
2022-08-10T12:28:49.987Z,34.42
2022-08-10T12:31:26.938Z,35.09
2022-08-10T12:34:20.399Z,36.16
2022-08-10T12:37:26.168Z,34.01
2022-08-10T12:44:07.700Z,33.78
2022-08-10T12:46:12.535Z,33.99
2022-08-10T12:48:50.581Z,34.17
2022-08-10T12:51:28.997Z,35.70
2022-08-10T12:54:07.170Z,34.12
2022-08-10T12:56:40.079Z,36.77
2022-08-10T12:59:11.030Z,35.68
2022-08-10T13:02:09.989Z,36.18
2022-08-10T13:04:31.823Z,36.57
2022-08-10T13:07:01.508Z,35.46
2022-08-10T13:09:30.421Z,38.48
2022-08-10T13:12:34.344Z,34.60
2022-08-10T13:15:45.448Z,36.71
2022-08-10T13:18:00.512Z,34.93
2022-08-10T13:20:34.231Z,37.05
2022-08-10T13:23:05.805Z,39.54
2022-08-10T13:25:43.589Z,42.18
2022-08-10T13:28:36.908Z,46.89
2022-08-10T13:31:11.403Z,51.72
2022-08-10T13:34:03.674Z,56.97
2022-08-10T13:36:40.784Z,55.51
2022-08-10T13:39:08.629Z,54.46
2022-08-10T13:41:41.022Z,61.11
2022-08-10T13:44:13.745Z,59.94
2022-08-10T13:46:42.637Z,62.57
2022-08-10T13:49:11.444Z,60.73
2022-08-10T13:51:54.151Z,61.92
2022-08-10T13:54:29.166Z,56.35
2022-08-10T13:56:57.459Z,55.45
2022-08-10T14:00:33.692Z,57.44
2022-08-10T14:02:22.971Z,58.28
2022-08-10T14:04:53.263Z,58.24
2022-08-10T14:07:22.145Z,56.29
2022-08-10T14:09:52.194Z,57.60
2022-08-10T14:12:32.057Z,54.83
2022-08-10T14:15:03.429Z,57.33
2022-08-10T14:17:31.743Z,55.41
2022-08-10T14:20:00.278Z,57.67
2022-08-10T14:22:34.403Z,57.52
2022-08-10T14:25:12.952Z,56.40
2022-08-10T14:28:02.613Z,54.40
2022-08-10T14:30:32.077Z,54.61
2022-08-10T14:33:04.386Z,57.04
2022-08-10T14:36:22.473Z,54.92
2022-08-10T14:38:26.876Z,49.83
2022-08-10T14:40:56.933Z,51.74
2022-08-10T14:43:48.245Z,49.48
2022-08-10T14:46:19.724Z,53.29
2022-08-10T14:48:52.287Z,56.90
2022-08-10T14:51:25.877Z,53.83
2022-08-10T14:53:56.343Z,56.46
2022-08-10T14:56:31.792Z,54.45
2022-08-10T14:59:07.127Z,53.37
2022-08-10T15:02:00.836Z,51.75
2022-08-10T15:04:28.778Z,54.80
2022-08-10T15:07:29.704Z,53.59
2022-08-10T15:10:00.406Z,55.71
2022-08-10T15:12:35.766Z,56.30
2022-08-10T15:15:05.496Z,56.78
2022-08-10T15:17:39.636Z,54.87
2022-08-10T15:20:20.831Z,55.38
2022-08-10T15:22:55.806Z,57.53
2022-08-10T15:25:26.450Z,61.82
2022-08-10T15:28:04.298Z,58.43
2022-08-10T15:30:42.939Z,60.90
2022-08-10T15:34:02.353Z,60.02
2022-08-10T15:36:43.367Z,59.78
2022-08-10T15:40:24.616Z,59.73
2022-08-10T15:42:21.285Z,57.76
2022-08-10T15:44:50.756Z,56.89
2022-08-10T15:47:44.923Z,60.33
2022-08-10T15:50:28.433Z,60.86
2022-08-10T15:53:16.111Z,64.43
2022-08-10T15:55:54.521Z,61.20
2022-08-10T15:58:40.417Z,62.92
2022-08-10T16:02:14.397Z,62.61
2022-08-10T16:04:34.823Z,66.75
2022-08-10T16:07:06.816Z,66.13
2022-08-10T16:10:23.698Z,68.50
2022-08-10T16:12:59.668Z,70.69
2022-08-10T16:15:29.668Z,69.88
2022-08-10T16:18:08.287Z,68.85
2022-08-10T16:20:53.501Z,72.09
2022-08-10T16:24:12.761Z,72.57
2022-08-10T16:26:41.416Z,72.63
2022-08-10T16:29:18.011Z,71.02
2022-08-10T16:31:54.799Z,71.74
2022-08-10T16:34:24.385Z,73.27
2022-08-10T16:36:55.327Z,71.96
2022-08-10T16:39:57.711Z,73.10
2022-08-10T16:42:35.965Z,73.92
2022-08-10T16:45:08.938Z,73.01
2022-08-10T16:47:47.269Z,71.94
2022-08-10T16:50:17.594Z,73.84
2022-08-10T16:52:49.575Z,73.72
2022-08-10T16:55:24.257Z,76.42
2022-08-10T16:58:09.355Z,76.92
2022-08-10T17:00:36.701Z,79.53
2022-08-10T17:03:17.346Z,81.87
2022-08-10T17:06:03.342Z,83.16
2022-08-10T17:08:49.149Z,85.82
2022-08-10T17:11:18.806Z,84.98
2022-08-10T17:13:49.167Z,86.13
2022-08-10T17:16:17.519Z,88.46
2022-08-10T17:18:46.981Z,88.47
2022-08-10T17:21:25.902Z,91.36
2022-08-10T17:23:56.612Z,91.34
2022-08-10T17:26:35.305Z,92.94
2022-08-10T17:29:57.316Z,91.69
2022-08-10T17:32:14.733Z,96.82
2022-08-10T17:34:47.005Z,99.87
2022-08-10T17:37:18.057Z,100.00
2022-08-10T17:40:01.266Z,100.00
2022-08-10T17:42:28.531Z,100.00
2022-08-10T17:44:56.977Z,100.00
2022-08-10T17:47:27.446Z,100.00
2022-08-10T17:49:57.895Z,100.00
2022-08-10T17:52:30.649Z,100.00
2022-08-10T17:55:07.151Z,100.00
2022-08-10T17:57:40.077Z,100.00
2022-08-10T18:00:14.881Z,100.00
2022-08-10T18:02:47.456Z,100.00
2022-08-10T18:05:15.279Z,100.00
2022-08-10T18:07:51.587Z,100.00
2022-08-10T18:10:20.855Z,100.00
2022-08-10T18:12:49.363Z,100.00
2022-08-10T18:15:25.230Z,100.00
2022-08-10T18:17:59.514Z,100.00
2022-08-10T18:20:34.422Z,100.00
2022-08-10T18:23:01.680Z,100.00
2022-08-10T18:25:33.573Z,100.00
2022-08-10T18:28:05.189Z,100.00
2022-08-10T18:30:45.767Z,100.00
2022-08-10T18:33:14.207Z,100.00
2022-08-10T18:35:44.114Z,100.00
2022-08-10T18:38:12.929Z,100.00
2022-08-10T18:40:43.770Z,100.00
2022-08-10T18:44:07.555Z,100.00
2022-08-10T18:46:09.508Z,100.00
2022-08-10T18:48:44.297Z,100.00
2022-08-10T18:51:12.354Z,100.00
2022-08-10T18:53:53.631Z,100.00
2022-08-10T18:56:44.714Z,100.00
2022-08-10T19:00:03.896Z,100.00
2022-08-10T19:02:49.331Z,100.00
2022-08-10T19:05:35.911Z,100.00
2022-08-10T19:08:49.394Z,100.00
2022-08-10T19:11:44.073Z,100.00
2022-08-10T19:14:19.332Z,100.00
2022-08-10T19:16:59.082Z,100.00
2022-08-10T19:20:04.093Z,100.00
2022-08-10T19:23:02.419Z,100.00
2022-08-10T19:28:47.295Z,100.00
2022-08-10T19:31:44.204Z,100.00
2022-08-10T19:34:17.498Z,100.00
2022-08-10T19:37:02.381Z,100.00
2022-08-10T19:39:56.387Z,100.00
2022-08-10T19:42:31.305Z,100.00
2022-08-10T19:46:01.468Z,100.00
2022-08-10T19:48:34.610Z,100.00
2022-08-10T19:51:13.035Z,100.00
2022-08-10T19:53:50.819Z,100.00
2022-08-10T19:56:34.512Z,100.00
2022-08-10T20:00:18.839Z,100.00
2022-08-10T20:02:36.489Z,100.00
2022-08-10T20:05:16.168Z,100.00
2022-08-10T20:08:14.483Z,100.00
2022-08-10T20:11:02.766Z,100.00
2022-08-10T20:14:02.061Z,100.00
2022-08-10T20:16:35.142Z,100.00
2022-08-10T20:19:26.269Z,100.00
2022-08-10T20:22:18.437Z,100.00
2022-08-10T20:25:07.450Z,100.00
2022-08-10T20:28:00.046Z,100.00
2022-08-10T20:30:33.085Z,100.00
2022-08-10T20:33:10.391Z,100.00
2022-08-10T20:35:54.064Z,100.00
2022-08-10T20:38:30.894Z,100.00
2022-08-10T20:41:23.256Z,100.00
2022-08-10T20:44:25.703Z,100.00
2022-08-10T20:47:19.602Z,100.00
2022-08-10T20:50:10.031Z,100.00
2022-08-10T20:52:37.184Z,100.00
2022-08-10T20:55:11.663Z,100.00
2022-08-10T20:58:04.626Z,100.00
2022-08-10T21:00:38.255Z,100.00
2022-08-10T21:03:31.820Z,100.00
2022-08-10T21:06:41.648Z,100.00
2022-08-10T21:09:17.139Z,100.00
2022-08-10T21:11:59.910Z,100.00
2022-08-10T21:14:44.350Z,100.00
2022-08-10T21:17:41.270Z,100.00
2022-08-10T21:20:30.763Z,100.00
2022-08-10T21:23:05.557Z,100.00
2022-08-10T21:26:08.449Z,100.00
2022-08-10T21:29:05.254Z,100.00
2022-08-10T21:32:06.424Z,100.00
2022-08-10T21:34:54.184Z,100.00
2022-08-10T21:37:39.723Z,100.00
2022-08-10T21:41:18.905Z,100.00
2022-08-10T21:44:17.341Z,100.00
2022-08-10T21:47:41.889Z,100.00
2022-08-10T21:50:31.700Z,100.00
2022-08-10T21:53:45.104Z,100.00
2022-08-10T21:56:46.016Z,100.00
2022-08-10T21:59:56.364Z,100.00
2022-08-10T22:02:50.136Z,100.00
2022-08-10T22:05:42.623Z,100.00
2022-08-10T22:08:32.190Z,100.00
2022-08-10T22:11:21.791Z,100.00
2022-08-10T22:14:10.023Z,100.00
2022-08-10T22:16:58.614Z,100.00
2022-08-10T22:19:51.373Z,100.00
2022-08-10T22:22:45.443Z,100.00
2022-08-10T22:26:08.415Z,100.00
2022-08-10T22:29:16.764Z,100.00
2022-08-10T22:32:08.008Z,100.00
2022-08-10T22:35:28.624Z,100.00
2022-08-10T22:38:50.012Z,100.00
2022-08-10T22:42:04.335Z,100.00
2022-08-10T22:44:55.335Z,100.00
2022-08-10T22:47:42.754Z,100.00
2022-08-10T22:50:18.827Z,100.00
2022-08-10T22:53:01.633Z,100.00
2022-08-10T22:55:58.037Z,100.00
2022-08-10T22:58:40.431Z,100.00
2022-08-10T23:01:40.613Z,100.00
2022-08-10T23:04:35.636Z,100.00
2022-08-10T23:07:18.229Z,100.00
2022-08-10T23:09:58.172Z,100.00
2022-08-10T23:12:34.506Z,100.00
2022-08-10T23:15:21.797Z,100.00
2022-08-10T23:18:14.416Z,100.00
2022-08-10T23:20:43.003Z,100.00
2022-08-10T23:23:23.828Z,100.00
2022-08-10T23:25:56.616Z,100.00
2022-08-10T23:28:38.389Z,100.00
2022-08-10T23:31:51.806Z,100.00
2022-08-10T23:34:05.692Z,100.00
2022-08-10T23:36:40.030Z,100.00
2022-08-10T23:39:26.037Z,100.00
2022-08-10T23:42:01.936Z,100.00
2022-08-10T23:44:45.060Z,100.00
2022-08-10T23:47:15.988Z,100.00
2022-08-10T23:49:45.028Z,100.00
2022-08-10T23:52:15.740Z,100.00
2022-08-10T23:55:10.066Z,100.00
2022-08-10T23:57:42.154Z,100.00
